• Join FlightAware (Why Join?)
  • Login
  • US Flag 
07:53AM EST


 

Airport Tracker/Info


-or-


 

Live Flight TrackerFlight Track Log ✈ N70JB ✈ 16-Feb-2014 ✈ KFTY - KSSI

Flight Track Log - Related Links

Times and Time Zones

All times are in EST time to prevent confusion due to time zone crossing. See the N70JB flight status page for this flight to view local times or setup timezone preferences in your user account.

Time Position Orientation Groundspeed Altitude Reporting Facility
EST Latitude Longitude Course Direction KTS MPH feet Rate Location/Type
09:18PM 33.7667 -84.5667 270° West 121 139 2,400  Level Atlanta TRACON
09:19PM 33.7667 -84.6167 270° West 135 155 3,000 286 Climbing Atlanta TRACON
09:20PM 33.7167 -84.6333 195° South 161 185 3,000 50 Level Atlanta TRACON
09:21PM 33.6833 -84.6500 203° Southwest 163 188 3,100  Climbing Atlanta TRACON
09:22PM 33.6333 -84.6667 196° South 164 189 3,000 -50 Descending Atlanta TRACON
09:23PM 33.6000 -84.6833 203° Southwest 176 203 3,000 50 Level Atlanta TRACON
09:24PM 33.5500 -84.6667 164° South 174 200 3,100 53 Climbing Atlanta TRACON
09:25PM 33.5000 -84.6500 164° South 180 207 3,100 316 Level Atlanta TRACON
09:26PM 33.4667 -84.6167 140° Southeast 171 197 3,700 762 Climbing Atlanta TRACON
09:27PM 33.4333 -84.5667 129° Southeast 164 189 4,700 762 Climbing Atlanta TRACON
09:28PM 33.4000 -84.5167 129° Southeast 182 209 5,300 684 Climbing Atlanta TRACON
09:29PM 33.3667 -84.4833 140° Southeast 186 214 6,000 421 Climbing Atlanta TRACON
09:30PM 33.3333 -84.4333 129° Southeast 196 226 6,100 50 Climbing Atlanta TRACON
09:31PM 33.3000 -84.3833 129° Southeast 203 234 6,100 190 Level Atlanta TRACON
09:32PM 33.2500 -84.3333 140° Southeast 208 239 6,500 429 Climbing Atlanta TRACON
09:33PM 33.2000 -84.2833 140° Southeast 212 244 7,000 300 Climbing Atlanta TRACON
09:34PM 33.1667 -84.2333 129° Southeast 216 249 7,100 53 Climbing Atlanta TRACON
09:35PM 33.1333 -84.1833 129° Southeast 220 253 7,100  Level Atlanta TRACON
09:36PM 33.0833 -84.1167 132° Southeast 225 259 7,100  Level Atlanta TRACON
09:37PM 33.0500 -84.0500 121° Southeast 226 260 7,100  Level Atlanta TRACON
09:38PM 33.0000 -83.9833 132° Southeast 228 262 7,100  Level Atlanta TRACON
09:39PM 32.9667 -83.9333 128° Southeast 228 262 7,100  Level Atlanta TRACON
09:40PM 32.9333 -83.8833 128° Southeast 226 260 7,100  Level Atlanta TRACON
09:41PM 32.8833 -83.8167 132° Southeast 226 260 7,100  Level Atlanta TRACON
09:42PM 32.8333 -83.7667 140° Southeast 228 262 7,100  Level Atlanta TRACON
09:43PM 32.8000 -83.7167 128° Southeast 228 262 7,100  Level Atlanta TRACON
09:44PM 32.7667 -83.6667 128° Southeast 230 265 7,100  Level Atlanta TRACON
09:45PM 32.7333 -83.6000 121° Southeast 242 278 7,100  Level Atlanta TRACON
09:46PM 32.6833 -83.5500 140° Southeast 228 262 7,100  Level Atlanta TRACON
09:47PM 32.6500 -83.4833 121° Southeast 229 264 7,100  Level Atlanta TRACON
09:48PM 32.6000 -83.4167 132° Southeast 228 262 7,100  Level Atlanta TRACON
09:50PM 32.5353 -83.3264 130° Southeast 239 275 7,100  Level Jacksonville Center
09:51PM 32.4958 -83.2694 129° Southeast 239 275 7,100  Level Jacksonville Center
09:52PM 32.4522 -83.2103 131° Southeast 233 268 7,100  Level Jacksonville Center
09:53PM 32.4125 -83.1533 130° Southeast 233 268 7,100  Level Jacksonville Center
09:54PM 32.3711 -83.0919 129° Southeast 233 268 7,100  Level Jacksonville Center
09:55PM 32.3314 -83.0353 130° Southeast 233 268 7,100  Level Jacksonville Center
09:56PM 32.2897 -82.9761 130° Southeast 233 268 7,100  Level Jacksonville Center
09:57PM 32.2522 -82.9197 128° Southeast 233 268 7,100  Level Jacksonville Center
09:58PM 32.2125 -82.8656 131° Southeast 233 268 7,100  Level Jacksonville Center
09:59PM 32.1706 -82.8092 131° Southeast 228 262 7,100  Level Jacksonville Center
10:00PM 32.1308 -82.7528 130° Southeast 222 255 7,100  Level Jacksonville Center
10:01PM 32.0933 -82.6964 128° Southeast 222 255 7,100  Level Jacksonville Center
10:02PM 32.0514 -82.6353 129° Southeast 222 255 7,100  Level Jacksonville Center
10:03PM 32.0094 -82.5814 133° Southeast 227 261 7,100  Level Jacksonville Center
10:04PM 31.9719 -82.5253 128° Southeast 222 255 7,100  Level Jacksonville Center
10:05PM 31.9319 -82.4692 130° Southeast 217 250 7,100  Level Jacksonville Center
10:06PM 31.8900 -82.4131 131° Southeast 217 250 7,100  Level Jacksonville Center
10:07PM 31.8564 -82.3544 124° Southeast 217 250 7,100  Level Jacksonville Center
10:08PM 31.8164 -82.2961 129° Southeast 227 261 7,100  Level Jacksonville Center
10:09PM 31.7806 -82.2375 126° Southeast 227 261 7,100  Level Jacksonville Center
10:10PM 31.7469 -82.1792 124° Southeast 222 255 7,100 -99 Level Jacksonville Center
10:11PM 31.7111 -82.1258 128° Southeast 222 255 6,900 -403 Descending Jacksonville Center
10:12PM 31.6711 -82.0578 125° Southeast 227 261 6,300 -605 Descending Jacksonville Center
10:13PM 31.6289 -81.9994 130° Southeast 232 267 5,700 -545 Descending Jacksonville Center
10:14PM 31.5931 -81.9389 125° Southeast 225 259 5,200 -400 Descending Jacksonville Center
10:15PM 31.5633 -81.8856 123° Southeast 225 259 4,900 -353 Descending Jacksonville Center
10:16PM 31.5275 -81.8322 128° Southeast 220 253 4,500 -400 Descending Jacksonville Center
10:17PM 31.4933 -81.7694 123° Southeast 210 242 4,100 -397 Descending Jacksonville Center
10:18PM 31.4594 -81.7161 127° Southeast 205 236 3,700 -400 Descending Jacksonville Center
10:19PM 31.4278 -81.6681 128° Southeast 205 236 3,300 -303 Descending Jacksonville Center
10:20PM 31.3958 -81.6147 125° Southeast 200 230 3,100 -250 Descending Jacksonville Center
10:21PM 31.3597 -81.5569 126° Southeast 200 230 2,800 -300 Descending Jacksonville Center
10:22PM 31.3281 -81.5086 127° Southeast 194 223 2,500 -300 Descending Jacksonville Center